Time;durP1;ratioP1;P1;durP2;ratioP2;P2;SDS_P1;SDS_P2;PMS_P1;PMS_P2;Temp;Humidity;BMP_temperature;BMP_pressure;BME280_temperature;BME280_humidity;BME280_pressure;Samples;Min_cycle;Max_cycle;Signal;HPM_P1;HPM_P2
2022/12/05 00:00:15;;;;;;;52.05;19.92;;;;;;;;;;4871267;29;20136;-75
2022/12/05 00:02:42;;;;;;;52.25;20.67;;;;;;;;;;4898479;29;20060;-75
2022/12/05 00:05:09;;;;;;;47.65;18.73;;;;;;;;;;4891380;29;20148;-75
2022/12/05 00:07:35;;;;;;;51.20;21.10;;;;;;;;;;4905376;29;20057;-75
2022/12/05 00:10:03;;;;;;;49.10;20.38;;;;;;;;;;4883180;29;20064;-75
2022/12/05 00:12:29;;;;;;;46.47;19.50;;;;;;;;;;4901873;29;20063;-75
2022/12/05 00:14:55;;;;;;;49.80;19.13;;;;;;;;;;4875520;29;20501;-75
2022/12/05 00:17:22;;;;;;;51.15;20.40;;;;;;;;;;4891899;29;20100;-75
2022/12/05 00:19:48;;;;;;;48.30;19.50;;;;;;;;;;4873616;29;20520;-75
2022/12/05 00:22:21;;;;;;;51.80;19.77;;;;;;;;;;4901988;29;20133;-75
2022/12/05 00:24:48;;;;;;;53.55;19.30;;;;;;;;;;4907460;29;20147;-75
2022/12/05 00:27:14;;;;;;;48.85;20.02;;;;;;;;;;4891449;29;20063;-75
2022/12/05 00:29:41;;;;;;;48.05;20.08;;;;;;;;;;4890890;29;20049;-75
2022/12/05 00:32:07;;;;;;;50.65;19.77;;;;;;;;;;4905203;29;20064;-76
2022/12/05 00:34:33;;;;;;;51.05;19.17;;;;;;;;;;4901758;29;20056;-75
2022/12/05 00:37:00;;;;;;;45.17;18.25;;;;;;;;;;4901379;29;20079;-75
2022/12/05 00:39:26;;;;;;;59.55;19.65;;;;;;;;;;4892532;29;20048;-75
2022/12/05 00:41:52;;;;;;;50.83;19.20;;;;;;;;;;4890074;29;20101;-75
2022/12/05 00:44:19;;;;;;;48.90;19.13;;;;;;;;;;4890967;29;20057;-75
2022/12/05 00:46:45;;;;;;;46.28;19.15;;;;;;;;;;4891091;29;20057;-75
2022/12/05 00:49:11;;;;;;;55.72;20.13;;;;;;;;;;4891625;29;20384;-75
2022/12/05 00:51:39;;;;;;;49.13;20.02;;;;;;;;;;4894856;29;20061;-75
2022/12/05 00:54:09;;;;;;;48.40;19.17;;;;;;;;;;4872912;29;20057;-75
2022/12/05 00:56:35;;;;;;;54.35;20.20;;;;;;;;;;4894778;29;20056;-75
2022/12/05 00:59:02;;;;;;;51.08;19.38;;;;;;;;;;4906404;29;20132;-75
2022/12/05 01:01:28;;;;;;;44.00;18.33;;;;;;;;;;4885175;29;20053;-75
2022/12/05 01:03:56;;;;;;;49.25;19.80;;;;;;;;;;4893953;29;20066;-75
2022/12/05 01:06:23;;;;;;;54.35;19.77;;;;;;;;;;4895353;29;20064;-75
2022/12/05 01:08:51;;;;;;;53.10;20.48;;;;;;;;;;4878190;29;20095;-75
2022/12/05 01:11:18;;;;;;;48.75;19.40;;;;;;;;;;4908869;29;20060;-75
2022/12/05 01:13:45;;;;;;;52.58;20.25;;;;;;;;;;4904917;29;20148;-75
2022/12/05 01:16:22;;;;;;;49.70;20.73;;;;;;;;;;4890880;29;20650;-75
2022/12/05 01:18:49;;;;;;;52.65;19.00;;;;;;;;;;4884156;29;20495;-75
2022/12/05 01:21:15;;;;;;;56.47;20.25;;;;;;;;;;4897295;29;20066;-75
2022/12/05 01:23:42;;;;;;;47.97;19.23;;;;;;;;;;4910951;29;20574;-75
2022/12/05 01:26:09;;;;;;;47.20;18.45;;;;;;;;;;4894518;29;20053;-75
2022/12/05 01:28:36;;;;;;;54.17;18.75;;;;;;;;;;4902754;29;20084;-75
2022/12/05 01:31:04;;;;;;;52.42;19.05;;;;;;;;;;4911161;29;20057;-75
2022/12/05 01:33:31;;;;;;;51.33;20.05;;;;;;;;;;4903892;29;20086;-75
2022/12/05 01:35:57;;;;;;;55.28;19.58;;;;;;;;;;4888563;29;20057;-75
2022/12/05 01:38:24;;;;;;;48.30;18.67;;;;;;;;;;4886464;29;20061;-75
2022/12/05 01:40:58;;;;;;;57.08;20.30;;;;;;;;;;4876401;29;20557;-75
2022/12/05 01:43:24;;;;;;;50.13;19.73;;;;;;;;;;4899713;29;20148;-75
2022/12/05 01:45:51;;;;;;;50.45;19.65;;;;;;;;;;4906062;29;20053;-75
2022/12/05 01:48:24;;;;;;;48.75;18.50;;;;;;;;;;4902128;29;20505;-75
2022/12/05 01:50:50;;;;;;;50.63;19.00;;;;;;;;;;4899006;29;20156;-75
2022/12/05 01:53:18;;;;;;;46.10;19.33;;;;;;;;;;4892982;29;20056;-75
2022/12/05 01:55:46;;;;;;;50.80;18.77;;;;;;;;;;4893392;29;20069;-75
2022/12/05 01:58:12;;;;;;;50.58;20.00;;;;;;;;;;4908594;29;20400;-75
2022/12/05 02:00:39;;;;;;;48.15;18.63;;;;;;;;;;4902602;29;20053;-75
2022/12/05 02:03:07;;;;;;;52.75;19.02;;;;;;;;;;4911623;29;20523;-75
2022/12/05 02:05:34;;;;;;;53.55;19.10;;;;;;;;;;4893230;29;20053;-75
2022/12/05 02:08:04;;;;;;;55.92;20.98;;;;;;;;;;4899553;29;20056;-75
2022/12/05 02:10:33;;;;;;;54.95;19.63;;;;;;;;;;4909182;29;20512;-75
2022/12/05 02:13:04;;;;;;;43.53;18.65;;;;;;;;;;4897535;29;20068;-75
2022/12/05 02:15:31;;;;;;;50.03;18.05;;;;;;;;;;4905902;29;20056;-75
2022/12/05 02:18:16;;;;;;;53.50;20.52;;;;;;;;;;4910231;29;20068;-75
2022/12/05 02:20:48;;;;;;;53.50;19.52;;;;;;;;;;4911577;29;20117;-75
2022/12/05 02:23:17;;;;;;;49.15;18.85;;;;;;;;;;4905332;29;20088;-75
2022/12/05 02:25:44;;;;;;;50.58;18.70;;;;;;;;;;4902173;29;20498;-75
2022/12/05 02:28:29;;;;;;;48.05;18.48;;;;;;;;;;4890345;29;20060;-75
2022/12/05 02:30:57;;;;;;;46.50;18.05;;;;;;;;;;4902684;29;20069;-75
2022/12/05 02:33:40;;;;;;;53.08;20.73;;;;;;;;;;4904870;29;20101;-75
2022/12/05 02:36:15;;;;;;;47.08;19.85;;;;;;;;;;4889528;29;20049;-75
2022/12/05 02:38:42;;;;;;;51.38;19.08;;;;;;;;;;4890240;29;20061;-75
2022/12/05 02:41:15;;;;;;;47.65;19.05;;;;;;;;;;4899188;29;20064;-76
2022/12/05 02:44:01;;;;;;;48.72;19.30;;;;;;;;;;4907930;29;20351;-75
2022/12/05 02:46:28;;;;;;;45.80;18.38;;;;;;;;;;4892685;29;20057;-75
2022/12/05 02:48:57;;;;;;;47.85;18.92;;;;;;;;;;4895371;29;20066;-75
2022/12/05 02:51:24;;;;;;;44.40;17.75;;;;;;;;;;4898329;29;20068;-75
2022/12/05 02:53:52;;;;;;;48.28;18.42;;;;;;;;;;4896326;29;20528;-75
2022/12/05 02:56:19;;;;;;;44.88;17.30;;;;;;;;;;4870014;29;20592;-75
2022/12/05 02:58:52;;;;;;;48.83;18.27;;;;;;;;;;4897433;29;20071;-75
2022/12/05 03:01:21;;;;;;;46.72;17.73;;;;;;;;;;4900284;29;20844;-75
2022/12/05 03:03:47;;;;;;;46.33;18.52;;;;;;;;;;4879951;29;20058;-75
2022/12/05 03:06:18;;;;;;;53.75;19.88;;;;;;;;;;4902598;29;20071;-75
2022/12/05 03:08:47;;;;;;;51.35;18.85;;;;;;;;;;4881246;29;20131;-75
2022/12/05 03:11:14;;;;;;;47.58;19.08;;;;;;;;;;4882541;29;20101;-75
2022/12/05 03:13:44;;;;;;;44.83;17.77;;;;;;;;;;4908147;29;20053;-75
2022/12/05 03:16:13;;;;;;;48.27;18.83;;;;;;;;;;4899305;29;20527;-75
2022/12/05 03:18:47;;;;;;;46.00;17.02;;;;;;;;;;4877255;29;20345;-75
2022/12/05 03:21:14;;;;;;;43.33;17.73;;;;;;;;;;4892026;29;20065;-75
2022/12/05 03:23:44;;;;;;;46.17;17.35;;;;;;;;;;4883776;29;20060;-75
2022/12/05 03:26:25;;;;;;;50.13;19.20;;;;;;;;;;4888853;29;20309;-75
2022/12/05 03:29:17;;;;;;;45.83;17.40;;;;;;;;;;4885140;29;20586;-75
2022/12/05 03:32:02;;;;;;;44.22;17.33;;;;;;;;;;4897498;29;20539;-75
2022/12/05 03:34:40;;;;;;;41.67;16.77;;;;;;;;;;4904913;29;20052;-75
2022/12/05 03:37:10;;;;;;;48.42;17.98;;;;;;;;;;4900342;29;20511;-75
2022/12/05 03:39:36;;;;;;;40.72;16.73;;;;;;;;;;4889077;29;20061;-75
2022/12/05 03:42:12;;;;;;;41.65;16.33;;;;;;;;;;4909929;29;20605;-75
2022/12/05 03:44:50;;;;;;;46.15;17.83;;;;;;;;;;4902894;29;20061;-75
2022/12/05 03:47:37;;;;;;;44.92;17.17;;;;;;;;;;4901169;29;20063;-75
2022/12/05 03:50:06;;;;;;;41.20;16.10;;;;;;;;;;4886492;29;20061;-75
2022/12/05 03:52:35;;;;;;;45.05;16.25;;;;;;;;;;4904892;29;20429;-75
2022/12/05 03:55:22;;;;;;;43.15;17.05;;;;;;;;;;4892159;29;20063;-75
2022/12/05 03:57:51;;;;;;;38.03;15.75;;;;;;;;;;4890645;29;20061;-75
2022/12/05 04:00:18;;;;;;;48.05;17.13;;;;;;;;;;4882694;29;20065;-75
2022/12/05 04:02:54;;;;;;;42.45;16.13;;;;;;;;;;4892413;29;20140;-75
2022/12/05 04:05:21;;;;;;;45.35;16.73;;;;;;;;;;4890980;29;20543;-75
2022/12/05 04:07:57;;;;;;;43.50;17.00;;;;;;;;;;5133208;27;20404;-76
2022/12/05 04:10:26;;;;;;;42.65;15.13;;;;;;;;;;5112251;27;20309;-75
2022/12/05 04:12:54;;;;;;;38.95;15.50;;;;;;;;;;5117953;27;20090;-76
2022/12/05 04:15:23;;;;;;;48.33;17.27;;;;;;;;;;5112776;27;20097;-76
2022/12/05 04:17:50;;;;;;;40.30;15.90;;;;;;;;;;5103677;27;20131;-76
2022/12/05 04:23:22;;;;;;;41.22;15.18;;;;;;;;;;5109634;27;20080;-76
2022/12/05 04:25:53;;;;;;;45.47;15.63;;;;;;;;;;5122974;27;20186;-75
2022/12/05 04:28:22;;;;;;;41.88;15.48;;;;;;;;;;5115769;27;20144;-76
2022/12/05 04:30:49;;;;;;;39.60;16.45;;;;;;;;;;5107041;27;20052;-76
2022/12/05 04:33:19;;;;;;;37.70;15.73;;;;;;;;;;5110767;27;20052;-76
2022/12/05 04:35:52;;;;;;;40.50;16.85;;;;;;;;;;5122099;27;20062;-75
2022/12/05 04:38:38;;;;;;;41.38;15.52;;;;;;;;;;5113656;27;20143;-76
2022/12/05 04:41:06;;;;;;;37.08;15.70;;;;;;;;;;5117354;27;20139;-76
2022/12/05 04:43:34;;;;;;;37.38;15.27;;;;;;;;;;5118153;27;20048;-76
2022/12/05 04:46:02;;;;;;;42.63;16.92;;;;;;;;;;5102764;27;20059;-76
2022/12/05 04:48:29;;;;;;;42.53;16.23;;;;;;;;;;5103310;27;20058;-76
2022/12/05 04:50:57;;;;;;;41.20;16.35;;;;;;;;;;5089547;28;20057;-76
2022/12/05 04:53:25;;;;;;;46.53;17.17;;;;;;;;;;5103372;27;20064;-75
2022/12/05 04:55:53;;;;;;;46.20;17.67;;;;;;;;;;5119585;27;20056;-76
2022/12/05 04:58:23;;;;;;;42.65;15.57;;;;;;;;;;5117469;27;20048;-76
2022/12/05 05:00:49;;;;;;;49.63;16.80;;;;;;;;;;5116274;27;20431;-76
2022/12/05 05:03:19;;;;;;;41.15;15.93;;;;;;;;;;5107092;27;20056;-76
2022/12/05 05:05:48;;;;;;;42.53;16.42;;;;;;;;;;5102105;27;20056;-77
2022/12/05 05:08:16;;;;;;;42.85;15.57;;;;;;;;;;5105772;27;20052;-76
2022/12/05 05:11:01;;;;;;;44.47;16.95;;;;;;;;;;5112777;27;20084;-76
2022/12/05 05:13:27;;;;;;;39.92;15.35;;;;;;;;;;5106276;27;20062;-76
2022/12/05 05:15:53;;;;;;;43.10;15.60;;;;;;;;;;5106349;27;20056;-76
2022/12/05 05:18:20;;;;;;;42.35;16.50;;;;;;;;;;5107411;27;20131;-76
2022/12/05 05:20:46;;;;;;;45.47;16.30;;;;;;;;;;5099759;28;20055;-76
2022/12/05 05:23:13;;;;;;;44.88;16.52;;;;;;;;;;5089453;28;20052;-76
2022/12/05 05:25:39;;;;;;;47.63;16.88;;;;;;;;;;5088296;28;20538;-76
2022/12/05 05:28:06;;;;;;;44.67;16.80;;;;;;;;;;5091490;28;20060;-76
2022/12/05 05:30:32;;;;;;;42.45;16.45;;;;;;;;;;5096435;28;20056;-76
2022/12/05 05:32:59;;;;;;;44.40;17.58;;;;;;;;;;5089716;28;20592;-76
2022/12/05 05:35:25;;;;;;;46.63;17.33;;;;;;;;;;5088841;28;20056;-76
2022/12/05 05:37:51;;;;;;;44.78;16.42;;;;;;;;;;5088627;28;20607;-76
2022/12/05 05:40:18;;;;;;;49.40;16.75;;;;;;;;;;5093648;28;20083;-76
2022/12/05 05:42:45;;;;;;;42.42;16.50;;;;;;;;;;5092214;28;20060;-77
2022/12/05 05:45:12;;;;;;;46.88;16.73;;;;;;;;;;5105323;28;20289;-77
2022/12/05 05:47:39;;;;;;;42.63;16.23;;;;;;;;;;5101444;28;20084;-77
2022/12/05 05:50:07;;;;;;;43.17;17.50;;;;;;;;;;5087693;28;20055;-77
2022/12/05 05:52:34;;;;;;;45.47;16.85;;;;;;;;;;5092195;28;20525;-77
2022/12/05 05:55:01;;;;;;;48.80;16.95;;;;;;;;;;5107594;28;20487;-77
2022/12/05 05:57:27;;;;;;;41.22;17.08;;;;;;;;;;5106151;28;20067;-77
2022/12/05 05:59:53;;;;;;;48.92;16.00;;;;;;;;;;5104472;28;20935;-77
2022/12/05 06:02:20;;;;;;;38.45;15.98;;;;;;;;;;5087734;28;20056;-77
2022/12/05 06:04:46;;;;;;;45.45;17.98;;;;;;;;;;5069822;28;20632;-77
2022/12/05 06:07:13;;;;;;;41.90;16.65;;;;;;;;;;5098576;27;20056;-77
2022/12/05 06:09:39;;;;;;;46.42;17.08;;;;;;;;;;5081191;28;20502;-77
2022/12/05 06:12:06;;;;;;;42.67;17.48;;;;;;;;;;5072006;28;20374;-77
2022/12/05 06:14:32;;;;;;;43.47;15.85;;;;;;;;;;5088132;28;20059;-77
2022/12/05 06:16:58;;;;;;;44.17;16.88;;;;;;;;;;5087425;28;20083;-77
2022/12/05 06:19:25;;;;;;;46.05;17.08;;;;;;;;;;5097274;28;20059;-77
2022/12/05 06:21:51;;;;;;;49.25;17.42;;;;;;;;;;5098487;28;20052;-76
2022/12/05 06:24:17;;;;;;;42.90;17.35;;;;;;;;;;5087947;27;20052;-76
2022/12/05 06:26:44;;;;;;;47.97;16.92;;;;;;;;;;5087885;28;20056;-77
2022/12/05 06:29:10;;;;;;;44.15;17.02;;;;;;;;;;5086926;28;20059;-77
2022/12/05 06:31:37;;;;;;;43.72;16.83;;;;;;;;;;5094273;28;20049;-77
2022/12/05 06:34:03;;;;;;;43.05;16.17;;;;;;;;;;5069851;28;20525;-76
2022/12/05 06:36:30;;;;;;;41.42;15.95;;;;;;;;;;5087614;28;20056;-76
2022/12/05 06:38:57;;;;;;;47.17;16.70;;;;;;;;;;5091095;28;20052;-76
2022/12/05 06:41:23;;;;;;;45.92;16.52;;;;;;;;;;5099707;28;20159;-76
2022/12/05 06:43:54;;;;;;;43.28;16.60;;;;;;;;;;5088752;28;20063;-77
2022/12/05 06:46:27;;;;;;;47.53;17.52;;;;;;;;;;5095542;28;20547;-76
2022/12/05 06:48:55;;;;;;;47.75;17.85;;;;;;;;;;5087460;27;20059;-76
2022/12/05 06:51:22;;;;;;;46.88;16.67;;;;;;;;;;5091472;28;20051;-76
2022/12/05 06:53:48;;;;;;;46.08;17.02;;;;;;;;;;5107588;28;20056;-76
2022/12/05 06:56:15;;;;;;;47.25;17.55;;;;;;;;;;5095571;28;20572;-76
2022/12/05 06:58:43;;;;;;;46.05;16.77;;;;;;;;;;5093226;28;20516;-76
2022/12/05 07:03:58;;;;;;;43.70;16.23;;;;;;;;;;5087384;28;20052;-76
2022/12/05 07:06:25;;;;;;;47.53;15.75;;;;;;;;;;5086458;28;20106;-77
2022/12/05 07:08:51;;;;;;;45.53;16.58;;;;;;;;;;5088405;28;20147;-77
2022/12/05 07:11:18;;;;;;;43.83;16.33;;;;;;;;;;5087446;28;20048;-76
2022/12/05 07:13:44;;;;;;;46.13;15.60;;;;;;;;;;5091579;28;20052;-77
2022/12/05 07:16:10;;;;;;;43.42;17.33;;;;;;;;;;5086874;28;20056;-76
2022/12/05 07:18:37;;;;;;;43.85;16.73;;;;;;;;;;5096045;28;20056;-76
2022/12/05 07:21:04;;;;;;;43.80;15.75;;;;;;;;;;5091559;28;20059;-77
2022/12/05 07:23:39;;;;;;;43.25;15.35;;;;;;;;;;5092208;28;20431;-76
2022/12/05 07:26:07;;;;;;;45.25;17.10;;;;;;;;;;5084614;28;20060;-76
2022/12/05 07:28:33;;;;;;;47.65;17.25;;;;;;;;;;5093036;28;20076;-76
2022/12/05 07:31:00;;;;;;;44.83;17.25;;;;;;;;;;5091263;27;20052;-76
2022/12/05 07:33:27;;;;;;;46.42;16.08;;;;;;;;;;5085218;28;20577;-76
2022/12/05 07:36:04;;;;;;;48.45;15.52;;;;;;;;;;5089048;28;20063;-76
2022/12/05 07:38:31;;;;;;;49.58;16.83;;;;;;;;;;5087462;28;20055;-76
2022/12/05 07:40:57;;;;;;;40.95;15.15;;;;;;;;;;5089995;28;20101;-76
2022/12/05 07:43:23;;;;;;;49.67;16.02;;;;;;;;;;5104529;27;20056;-76
2022/12/05 07:45:50;;;;;;;46.40;16.25;;;;;;;;;;5093744;28;20059;-77
2022/12/05 07:48:16;;;;;;;43.25;15.20;;;;;;;;;;5098897;28;20063;-77
2022/12/05 07:50:44;;;;;;;45.97;16.05;;;;;;;;;;5086350;28;20576;-77
2022/12/05 07:53:10;;;;;;;44.15;16.15;;;;;;;;;;5084287;28;20048;-77
2022/12/05 07:55:37;;;;;;;43.60;15.65;;;;;;;;;;5088870;28;20543;-77
2022/12/05 07:58:03;;;;;;;49.60;16.88;;;;;;;;;;5068092;28;20053;-77
2022/12/05 08:00:30;;;;;;;41.65;16.55;;;;;;;;;;5087975;28;20059;-77
2022/12/05 08:02:56;;;;;;;51.35;17.88;;;;;;;;;;5094486;28;20052;-77
2022/12/05 08:05:22;;;;;;;44.45;16.80;;;;;;;;;;5091337;28;20058;-77
2022/12/05 08:07:49;;;;;;;45.67;16.02;;;;;;;;;;5095083;28;20064;-77
2022/12/05 08:10:15;;;;;;;48.97;15.75;;;;;;;;;;5099255;28;20063;-77
2022/12/05 08:12:42;;;;;;;60.17;17.55;;;;;;;;;;5099470;28;20052;-77
2022/12/05 08:15:08;;;;;;;55.53;17.17;;;;;;;;;;5089446;28;20131;-77
2022/12/05 08:17:34;;;;;;;51.72;16.77;;;;;;;;;;5094483;28;20052;-76
2022/12/05 08:20:01;;;;;;;48.88;16.77;;;;;;;;;;5084925;28;20052;-77
2022/12/05 08:22:28;;;;;;;40.92;15.25;;;;;;;;;;5085229;28;20059;-76
2022/12/05 08:24:54;;;;;;;41.53;15.65;;;;;;;;;;5085461;28;20132;-76
2022/12/05 08:27:21;;;;;;;44.08;16.52;;;;;;;;;;5086142;28;20048;-76
2022/12/05 08:29:48;;;;;;;43.22;14.63;;;;;;;;;;5085969;28;20099;-77
2022/12/05 08:32:14;;;;;;;48.58;15.90;;;;;;;;;;5086347;28;20057;-77
2022/12/05 08:34:41;;;;;;;36.03;15.30;;;;;;;;;;5094952;28;20140;-76
2022/12/05 08:37:07;;;;;;;42.30;15.40;;;;;;;;;;5087968;28;20135;-77
2022/12/05 08:39:35;;;;;;;41.17;15.25;;;;;;;;;;5100610;27;20048;-77
2022/12/05 08:42:04;;;;;;;36.20;15.23;;;;;;;;;;5086249;28;20053;-77
2022/12/05 08:44:30;;;;;;;39.45;15.20;;;;;;;;;;5091602;28;20079;-76
2022/12/05 08:46:56;;;;;;;36.88;14.50;;;;;;;;;;5089887;28;20056;-77
2022/12/05 08:49:23;;;;;;;38.25;15.05;;;;;;;;;;5083052;28;20063;-76
2022/12/05 08:51:49;;;;;;;43.65;15.73;;;;;;;;;;5103610;27;20495;-76
2022/12/05 08:54:15;;;;;;;39.50;14.70;;;;;;;;;;5102560;28;20483;-77
2022/12/05 08:56:42;;;;;;;38.70;15.25;;;;;;;;;;5103266;28;20057;-76
2022/12/05 08:59:08;;;;;;;42.08;15.98;;;;;;;;;;5082505;28;20056;-76
2022/12/05 09:01:37;;;;;;;39.78;15.48;;;;;;;;;;5096139;28;20056;-77
2022/12/05 09:04:04;;;;;;;38.10;14.20;;;;;;;;;;5090144;27;20049;-76
2022/12/05 09:06:31;;;;;;;43.10;15.82;;;;;;;;;;5091322;27;20147;-76
2022/12/05 09:08:58;;;;;;;41.45;15.23;;;;;;;;;;5075948;28;20082;-76
2022/12/05 09:11:29;;;;;;;41.70;15.20;;;;;;;;;;5102879;27;20469;-76
2022/12/05 09:13:56;;;;;;;43.22;15.27;;;;;;;;;;5090503;28;20059;-77
2022/12/05 09:16:34;;;;;;;46.90;15.50;;;;;;;;;;5075343;28;20832;-77
2022/12/05 09:19:04;;;;;;;43.13;15.60;;;;;;;;;;5091720;28;20052;-76
2022/12/05 09:21:31;;;;;;;38.80;15.18;;;;;;;;;;5097306;27;20052;-77
2022/12/05 09:23:58;;;;;;;33.55;14.43;;;;;;;;;;5101749;28;20628;-77
2022/12/05 09:26:25;;;;;;;40.85;15.13;;;;;;;;;;5096736;28;20063;-77
2022/12/05 09:28:51;;;;;;;40.63;15.00;;;;;;;;;;5088123;28;20144;-77
2022/12/05 09:31:20;;;;;;;35.22;14.70;;;;;;;;;;5087555;28;20515;-77
2022/12/05 09:33:47;;;;;;;40.22;15.18;;;;;;;;;;5090178;28;20052;-77
2022/12/05 09:36:18;;;;;;;39.53;15.18;;;;;;;;;;5093892;28;20461;-77
2022/12/05 09:38:45;;;;;;;38.55;15.23;;;;;;;;;;5089635;28;20068;-77
2022/12/05 09:41:11;;;;;;;37.33;15.02;;;;;;;;;;5070341;28;20060;-77
2022/12/05 09:43:50;;;;;;;36.13;14.70;;;;;;;;;;5070852;28;20060;-76
2022/12/05 09:46:33;;;;;;;39.08;15.73;;;;;;;;;;5088239;28;20048;-77
2022/12/05 09:49:01;;;;;;;39.35;14.52;;;;;;;;;;5088831;28;20056;-76
2022/12/05 09:51:28;;;;;;;30.83;13.60;;;;;;;;;;5070202;28;20052;-77
2022/12/05 09:53:54;;;;;;;34.45;14.95;;;;;;;;;;5088775;28;20052;-77
2022/12/05 09:56:26;;;;;;;44.17;14.77;;;;;;;;;;5106367;28;20518;-77
2022/12/05 09:58:53;;;;;;;32.80;13.98;;;;;;;;;;5073184;28;20534;-77
2022/12/05 10:01:39;;;;;;;40.60;13.95;;;;;;;;;;5088759;28;20091;-77
2022/12/05 10:04:05;;;;;;;30.63;13.10;;;;;;;;;;5079971;28;20102;-77
2022/12/05 10:06:51;;;;;;;33.88;13.40;;;;;;;;;;5104699;28;20048;-77
2022/12/05 10:09:27;;;;;;;30.00;13.60;;;;;;;;;;5091742;28;20056;-76
2022/12/05 10:11:58;;;;;;;30.60;12.65;;;;;;;;;;5099571;28;20143;-77
2022/12/05 10:14:24;;;;;;;28.67;12.38;;;;;;;;;;5093267;28;20064;-77
2022/12/05 10:16:55;;;;;;;32.30;12.82;;;;;;;;;;5090339;28;20056;-77
2022/12/05 10:19:27;;;;;;;34.38;12.73;;;;;;;;;;5095086;28;20517;-77
2022/12/05 10:22:12;;;;;;;28.35;12.88;;;;;;;;;;5070354;28;20514;-77
2022/12/05 10:24:50;;;;;;;30.48;12.52;;;;;;;;;;5098214;28;20085;-76
2022/12/05 10:27:20;;;;;;;29.60;12.43;;;;;;;;;;5099257;28;20052;-77
2022/12/05 10:29:52;;;;;;;33.60;12.23;;;;;;;;;;5076459;28;20134;-77
2022/12/05 10:32:24;;;;;;;27.30;12.93;;;;;;;;;;5098536;28;20044;-77
2022/12/05 10:34:53;;;;;;;30.58;12.50;;;;;;;;;;5092577;28;20048;-77
2022/12/05 10:37:21;;;;;;;25.73;11.77;;;;;;;;;;5098232;28;20163;-77
2022/12/05 10:39:48;;;;;;;25.33;12.10;;;;;;;;;;5093160;28;20053;-77
2022/12/05 10:42:20;;;;;;;30.10;11.80;;;;;;;;;;5088327;28;20053;-77
2022/12/05 10:44:47;;;;;;;28.15;12.50;;;;;;;;;;5095752;28;20473;-77
2022/12/05 10:47:14;;;;;;;28.20;12.50;;;;;;;;;;5085558;28;20052;-77
2022/12/05 10:49:41;;;;;;;27.33;12.68;;;;;;;;;;5093165;28;20064;-77
2022/12/05 10:52:07;;;;;;;30.65;12.05;;;;;;;;;;5089827;28;20135;-77
2022/12/05 10:54:38;;;;;;;30.08;12.90;;;;;;;;;;5090831;28;20131;-77
2022/12/05 10:57:19;;;;;;;28.88;12.75;;;;;;;;;;5099909;28;20056;-77
2022/12/05 10:59:46;;;;;;;26.58;12.00;;;;;;;;;;5099067;28;20144;-77
2022/12/05 11:02:25;;;;;;;29.05;12.65;;;;;;;;;;5098910;27;20063;-77
2022/12/05 11:04:52;;;;;;;27.65;12.15;;;;;;;;;;5090393;28;20055;-77
2022/12/05 11:07:30;;;;;;;24.23;11.88;;;;;;;;;;5078721;28;20521;-77
2022/12/05 11:09:58;;;;;;;32.63;13.73;;;;;;;;;;5091958;28;20063;-77
2022/12/05 11:12:35;;;;;;;28.60;12.38;;;;;;;;;;5089099;28;20411;-77
2022/12/05 11:15:04;;;;;;;26.40;13.05;;;;;;;;;;5089152;28;20057;-76
2022/12/05 11:17:35;;;;;;;24.35;11.77;;;;;;;;;;5099707;27;20052;-76
2022/12/05 11:20:23;;;;;;;28.08;11.77;;;;;;;;;;5096298;28;20049;-77
2022/12/05 11:22:53;;;;;;;25.10;11.82;;;;;;;;;;5090133;28;20063;-76
2022/12/05 11:25:24;;;;;;;26.58;11.52;;;;;;;;;;5093415;28;20059;-76
2022/12/05 11:27:51;;;;;;;22.77;10.63;;;;;;;;;;5091240;28;20067;-77
2022/12/05 11:30:23;;;;;;;17.40;8.25;;;;;;;;;;5090747;28;20083;-77
2022/12/05 11:32:50;;;;;;;;;;;;;;;;;;5073475;28;20450;-77
2022/12/05 11:35:26;;;;;;;14.85;6.68;;;;;;;;;;5087305;28;47027;-77
2022/12/05 11:37:52;;;;;;;12.40;5.82;;;;;;;;;;5092752;28;20060;-76
2022/12/05 11:40:27;;;;;;;12.68;5.65;;;;;;;;;;5098218;28;20052;-76
2022/12/05 11:43:10;;;;;;;14.10;6.10;;;;;;;;;;5086646;28;20056;-76
2022/12/05 11:45:41;;;;;;;15.23;5.35;;;;;;;;;;5084570;28;20060;-76
2022/12/05 11:48:19;;;;;;;11.98;5.40;;;;;;;;;;5096719;28;20053;-76
2022/12/05 11:51:04;;;;;;;12.95;5.78;;;;;;;;;;5110056;27;20586;-76
2022/12/05 11:53:37;;;;;;;17.60;5.57;;;;;;;;;;5128601;27;20048;-77
2022/12/05 11:56:12;;;;;;;27.45;6.43;;;;;;;;;;5100340;27;20063;-77
2022/12/05 11:58:51;;;;;;;11.85;5.20;;;;;;;;;;5097444;28;20522;-77
2022/12/05 12:01:20;;;;;;;14.43;6.00;;;;;;;;;;5090370;28;20570;-77
2022/12/05 12:04:04;;;;;;;13.02;5.18;;;;;;;;;;5090100;28;20060;-77
2022/12/05 12:06:33;;;;;;;14.70;6.30;;;;;;;;;;5092568;28;20503;-77
2022/12/05 12:09:07;;;;;;;13.38;5.78;;;;;;;;;;5095326;28;20139;-77
2022/12/05 12:11:43;;;;;;;10.98;5.13;;;;;;;;;;5100944;28;20528;-77
2022/12/05 12:14:25;;;;;;;11.55;5.50;;;;;;;;;;5103023;28;20056;-77
2022/12/05 12:16:52;;;;;;;17.10;5.38;;;;;;;;;;5099301;28;20129;-77
2022/12/05 12:19:33;;;;;;;13.35;5.25;;;;;;;;;;5089108;28;20052;-77
2022/12/05 12:21:59;;;;;;;13.18;4.72;;;;;;;;;;5096957;28;20080;-77
2022/12/05 12:24:32;;;;;;;12.55;4.82;;;;;;;;;;5095869;28;20511;-77
2022/12/05 12:26:58;;;;;;;10.75;4.75;;;;;;;;;;5086153;28;20064;-77
2022/12/05 12:29:34;;;;;;;10.07;4.82;;;;;;;;;;5101522;28;20076;-77
2022/12/05 12:32:00;;;;;;;10.90;4.47;;;;;;;;;;5090210;28;20063;-77
2022/12/05 12:34:29;;;;;;;12.38;4.45;;;;;;;;;;5076625;28;20052;-77
2022/12/05 12:36:56;;;;;;;9.80;4.45;;;;;;;;;;5090572;27;20609;-77
2022/12/05 12:39:22;;;;;;;9.82;4.38;;;;;;;;;;5093293;28;20300;-77
2022/12/05 12:42:12;;;;;;;10.95;4.43;;;;;;;;;;5090085;28;20059;-77
2022/12/05 12:44:50;;;;;;;14.70;5.43;;;;;;;;;;5081884;28;20053;-77
2022/12/05 12:47:29;;;;;;;10.32;4.50;;;;;;;;;;5099485;28;20106;-77
2022/12/05 12:49:55;;;;;;;12.15;4.50;;;;;;;;;;5089224;28;20052;-77
2022/12/05 12:52:23;;;;;;;10.90;3.90;;;;;;;;;;5097803;28;20060;-77
2022/12/05 12:55:12;;;;;;;8.00;3.40;;;;;;;;;;5095411;28;20084;-77
2022/12/05 12:57:41;;;;;;;8.57;3.92;;;;;;;;;;5089830;28;20056;-77
2022/12/05 13:00:27;;;;;;;8.93;4.03;;;;;;;;;;5098463;28;20043;-77
2022/12/05 13:02:56;;;;;;;9.18;3.90;;;;;;;;;;5093941;28;20544;-77
2022/12/05 13:05:33;;;;;;;8.38;3.50;;;;;;;;;;5073916;28;20082;-77
2022/12/05 13:08:13;;;;;;;10.10;3.90;;;;;;;;;;5094990;28;20066;-77
2022/12/05 13:10:41;;;;;;;8.13;3.55;;;;;;;;;;5108852;27;20518;-77
2022/12/05 13:13:12;;;;;;;7.25;3.58;;;;;;;;;;5097307;28;20060;-76
2022/12/05 13:15:47;;;;;;;10.82;3.70;;;;;;;;;;5092880;28;20102;-76
2022/12/05 13:18:15;;;;;;;6.90;3.33;;;;;;;;;;5093161;28;20048;-76
2022/12/05 13:20:42;;;;;;;10.27;4.57;;;;;;;;;;5094303;28;20183;-76
2022/12/05 13:23:13;;;;;;;6.55;3.20;;;;;;;;;;5088246;28;20516;-76
2022/12/05 13:25:39;;;;;;;;;;;;;;;;;;5097995;28;20099;-77
2022/12/05 13:28:15;;;;;;;8.82;3.20;;;;;;;;;;5088549;28;47505;-76
2022/12/05 13:30:57;;;;;;;6.35;3.08;;;;;;;;;;5108687;28;20056;-77
2022/12/05 13:33:24;;;;;;;8.18;3.35;;;;;;;;;;5101977;28;20142;-77
2022/12/05 13:44:41;;;;;;;7.85;3.67;;;;;;;;;;5099360;28;20053;-77
2022/12/05 13:47:23;;;;;;;8.90;3.72;;;;;;;;;;5086901;28;20056;-77
2022/12/05 13:50:10;;;;;;;8.00;3.40;;;;;;;;;;5095703;28;20056;-76
2022/12/05 13:52:42;;;;;;;9.00;3.80;;;;;;;;;;5082265;28;20056;-77
2022/12/05 13:55:16;;;;;;;8.07;3.63;;;;;;;;;;5088570;27;20052;-76
2022/12/05 13:57:44;;;;;;;8.88;4.13;;;;;;;;;;5096570;28;20059;-77
2022/12/05 14:00:10;;;;;;;10.98;4.43;;;;;;;;;;5093049;28;20048;-79
2022/12/05 14:02:40;;;;;;;11.10;5.20;;;;;;;;;;5093037;28;20053;-78
2022/12/05 14:05:12;;;;;;;10.75;4.47;;;;;;;;;;5102209;28;20052;-77
2022/12/05 14:07:39;;;;;;;9.98;4.97;;;;;;;;;;5089243;28;20143;-77
2022/12/05 14:10:06;;;;;;;12.73;5.03;;;;;;;;;;5096878;28;20056;-77
2022/12/05 14:12:55;;;;;;;11.65;5.40;;;;;;;;;;5092791;27;20056;-77
2022/12/05 14:15:25;;;;;;;12.65;5.28;;;;;;;;;;5076415;28;20434;-77
2022/12/05 14:17:56;;;;;;;11.30;5.35;;;;;;;;;;5089239;28;20049;-77
2022/12/05 14:20:37;;;;;;;13.88;5.78;;;;;;;;;;5104415;28;20052;-77
2022/12/05 14:23:29;;;;;;;10.40;5.22;;;;;;;;;;5106577;28;20052;-77
2022/12/05 14:26:14;;;;;;;9.57;4.22;;;;;;;;;;5106138;28;20543;-77
2022/12/05 14:28:59;;;;;;;10.35;4.47;;;;;;;;;;5086828;28;20040;-77
2022/12/05 14:31:44;;;;;;;10.27;4.47;;;;;;;;;;5070235;28;20057;-77
2022/12/05 14:34:21;;;;;;;8.50;4.03;;;;;;;;;;5090852;28;20053;-77
2022/12/05 14:37:01;;;;;;;9.82;4.15;;;;;;;;;;5095644;28;20068;-77
2022/12/05 14:39:30;;;;;;;9.37;4.00;;;;;;;;;;5074961;28;20044;-77
2022/12/05 14:41:58;;;;;;;8.50;4.15;;;;;;;;;;5090683;28;20785;-77
2022/12/05 14:44:30;;;;;;;8.77;4.10;;;;;;;;;;5087811;28;20917;-77
2022/12/05 14:47:01;;;;;;;10.27;4.88;;;;;;;;;;5084070;28;20053;-77
2022/12/05 14:49:35;;;;;;;11.63;4.88;;;;;;;;;;5090027;28;20059;-77
2022/12/05 14:52:10;;;;;;;10.45;4.65;;;;;;;;;;5093705;28;20064;-77